createdAt,value
2018-10-16T00:02:16.449Z,11.00
2018-10-16T00:04:44.962Z,11.20
2018-10-16T00:07:14.115Z,11.10
2018-10-16T00:09:42.607Z,11.30
2018-10-16T00:12:11.112Z,11.10
2018-10-16T00:14:39.596Z,11.10
2018-10-16T00:17:08.067Z,11.20
2018-10-16T00:19:36.554Z,11.20
2018-10-16T00:22:05.077Z,11.00
2018-10-16T00:24:33.590Z,11.00
2018-10-16T00:27:02.681Z,11.00
2018-10-16T00:29:31.174Z,11.20
2018-10-16T00:31:59.639Z,11.00
2018-10-16T00:34:28.528Z,11.00
2018-10-16T00:36:57.302Z,11.00
2018-10-16T00:39:25.821Z,11.20
2018-10-16T00:41:55.559Z,10.80
2018-10-16T00:44:24.115Z,10.70
2018-10-16T00:46:52.651Z,10.70
2018-10-16T00:49:21.179Z,10.70
2018-10-16T00:51:49.662Z,11.00
2018-10-16T00:54:18.190Z,11.20
2018-10-16T00:56:46.666Z,11.00
2018-10-16T00:59:15.183Z,11.00
2018-10-16T01:01:43.650Z,10.70
2018-10-16T01:04:12.137Z,10.60
2018-10-16T01:06:40.608Z,10.40
2018-10-16T01:09:11.770Z,10.40
2018-10-16T01:11:40.718Z,10.40
2018-10-16T01:14:09.380Z,10.30
2018-10-16T01:16:37.887Z,10.50
2018-10-16T01:19:07.676Z,10.40
2018-10-16T01:21:36.575Z,10.30
2018-10-16T01:24:05.578Z,10.20
2018-10-16T01:26:34.287Z,10.40
2018-10-16T01:29:02.814Z,10.50
2018-10-16T01:31:31.308Z,10.80
2018-10-16T01:34:00.127Z,10.90
2018-10-16T01:36:28.942Z,10.60
2018-10-16T01:38:57.403Z,10.30
2018-10-16T01:41:25.870Z,10.20
2018-10-16T01:43:54.306Z,10.10
2018-10-16T01:46:22.845Z,10.00
2018-10-16T01:48:51.304Z,10.00
2018-10-16T01:51:20.055Z,10.00
2018-10-16T01:53:48.552Z,10.00
2018-10-16T01:56:17.315Z,9.90
2018-10-16T01:58:45.811Z,10.10
2018-10-16T02:01:14.847Z,10.40
2018-10-16T02:03:43.329Z,10.60
2018-10-16T02:06:12.119Z,10.50
2018-10-16T02:08:40.582Z,10.30
2018-10-16T02:11:09.067Z,10.10
2018-10-16T02:13:37.520Z,10.00
2018-10-16T02:16:06.055Z,10.00
2018-10-16T02:18:34.519Z,10.00
2018-10-16T02:21:03.329Z,10.10
2018-10-16T02:23:31.842Z,10.20
2018-10-16T02:26:00.376Z,10.10
2018-10-16T02:28:29.139Z,10.00
2018-10-16T02:30:57.619Z,10.00
2018-10-16T02:33:26.070Z,10.00
2018-10-16T02:35:54.581Z,10.00
2018-10-16T02:38:23.364Z,9.90
2018-10-16T02:40:51.854Z,9.70
2018-10-16T02:43:20.298Z,9.60
2018-10-16T02:45:48.771Z,9.70
2018-10-16T02:48:17.244Z,9.70
2018-10-16T02:50:45.947Z,9.80
2018-10-16T02:53:14.681Z,10.00
2018-10-16T02:55:43.169Z,10.20
2018-10-16T02:58:12.228Z,10.30
2018-10-16T03:00:41.032Z,10.00
2018-10-16T03:03:09.760Z,9.90
2018-10-16T03:05:38.491Z,9.80
2018-10-16T03:08:07.407Z,9.80
2018-10-16T03:10:36.195Z,9.70
2018-10-16T03:13:04.714Z,9.70
2018-10-16T03:15:33.739Z,9.80
2018-10-16T03:18:02.490Z,10.00
2018-10-16T03:20:31.018Z,9.90
2018-10-16T03:22:59.790Z,9.80
2018-10-16T03:25:28.318Z,9.70
2018-10-16T03:27:57.120Z,9.70
2018-10-16T03:30:25.592Z,9.60
2018-10-16T03:32:54.475Z,9.50
2018-10-16T03:35:23.002Z,9.50
2018-10-16T03:37:51.496Z,9.40
2018-10-16T03:40:20.311Z,9.50
2018-10-16T03:42:48.804Z,9.70
2018-10-16T03:45:17.269Z,9.80
2018-10-16T03:47:45.831Z,9.60
2018-10-16T03:50:14.894Z,9.40
2018-10-16T03:52:43.362Z,9.30
2018-10-16T03:55:11.843Z,9.40
2018-10-16T03:57:40.379Z,9.30
2018-10-16T04:00:09.975Z,9.30
2018-10-16T04:02:38.928Z,9.10
2018-10-16T04:05:07.667Z,9.10
2018-10-16T04:07:36.229Z,9.20
2018-10-16T04:10:04.939Z,9.50
2018-10-16T04:12:33.447Z,9.60
2018-10-16T04:15:01.955Z,9.80
2018-10-16T04:17:30.441Z,9.60
2018-10-16T04:19:58.926Z,9.40
2018-10-16T04:22:27.513Z,9.50
2018-10-16T04:24:56.263Z,9.50
2018-10-16T04:27:24.747Z,9.30
2018-10-16T04:29:53.172Z,9.40
2018-10-16T04:32:21.894Z,9.30
2018-10-16T04:34:50.643Z,9.30
2018-10-16T04:37:19.087Z,9.20
2018-10-16T04:39:47.671Z,9.20
2018-10-16T04:42:17.034Z,9.00
2018-10-16T04:44:45.466Z,9.10
2018-10-16T04:47:14.207Z,9.20
2018-10-16T04:49:42.698Z,9.10
2018-10-16T04:52:11.772Z,9.00
2018-10-16T04:54:40.206Z,8.80
2018-10-16T04:57:08.735Z,8.90
2018-10-16T04:59:37.191Z,9.10
2018-10-16T05:02:06.128Z,9.10
2018-10-16T05:04:34.951Z,9.00
2018-10-16T05:07:03.667Z,9.00
2018-10-16T05:09:32.129Z,9.10
2018-10-16T05:12:00.628Z,8.90
2018-10-16T05:14:29.815Z,9.30
2018-10-16T05:16:58.499Z,9.20
2018-10-16T05:19:27.272Z,9.10
2018-10-16T05:21:55.700Z,9.00
2018-10-16T05:24:24.162Z,9.30
2018-10-16T05:26:52.633Z,9.30
2018-10-16T05:29:21.088Z,9.10
2018-10-16T05:31:49.547Z,9.00
2018-10-16T05:34:18.324Z,9.00
2018-10-16T05:36:46.763Z,8.90
2018-10-16T05:39:15.271Z,9.10
2018-10-16T05:41:43.744Z,9.40
2018-10-16T05:44:12.190Z,9.20
2018-10-16T05:46:40.623Z,8.90
2018-10-16T05:49:09.079Z,8.80
2018-10-16T05:51:37.560Z,8.80
2018-10-16T05:54:06.383Z,8.80
2018-10-16T05:56:34.798Z,8.80
2018-10-16T05:59:04.119Z,8.70
2018-10-16T06:01:32.599Z,8.70
2018-10-16T06:04:01.165Z,8.70
2018-10-16T06:06:29.630Z,8.60
2018-10-16T06:08:59.576Z,8.60
2018-10-16T06:11:28.716Z,8.90
2018-10-16T06:13:57.175Z,8.80
2018-10-16T06:16:26.342Z,8.80
2018-10-16T06:18:54.804Z,8.70
2018-10-16T06:21:23.320Z,8.80
2018-10-16T06:23:51.805Z,8.80
2018-10-16T06:26:20.288Z,9.20
2018-10-16T06:28:49.043Z,9.20
2018-10-16T06:31:17.514Z,9.00
2018-10-16T06:33:46.353Z,9.20
2018-10-16T06:36:14.858Z,9.40
2018-10-16T06:38:43.318Z,9.30
2018-10-16T06:41:12.191Z,9.20
2018-10-16T06:43:40.721Z,9.20
2018-10-16T06:46:09.154Z,9.20
2018-10-16T06:48:37.964Z,9.20
2018-10-16T06:51:06.173Z,9.30
2018-10-16T06:53:34.634Z,9.40
2018-10-16T06:56:03.103Z,9.30
2018-10-16T06:58:31.763Z,9.30
2018-10-16T07:01:00.547Z,9.50
2018-10-16T07:03:29.004Z,9.60
2018-10-16T07:05:57.467Z,9.90
2018-10-16T07:08:25.982Z,10.00
2018-10-16T07:10:54.469Z,9.90
2018-10-16T07:13:23.168Z,10.20
2018-10-16T07:15:51.658Z,10.40
2018-10-16T07:18:20.090Z,10.70
2018-10-16T07:20:48.879Z,10.70
2018-10-16T07:23:17.346Z,10.80
2018-10-16T07:25:45.827Z,10.90
2018-10-16T07:28:14.258Z,11.00
2018-10-16T07:30:42.720Z,11.30
2018-10-16T07:33:11.467Z,11.60
2018-10-16T07:35:39.975Z,11.90
2018-10-16T07:38:08.612Z,11.90
2018-10-16T07:40:37.005Z,12.00
2018-10-16T07:43:05.687Z,12.20
2018-10-16T07:45:34.167Z,12.40
2018-10-16T07:48:02.629Z,12.70
2018-10-16T07:50:31.116Z,12.70
2018-10-16T07:52:59.539Z,12.90
2018-10-16T07:55:27.991Z,13.10
2018-10-16T07:57:56.442Z,13.30
2018-10-16T08:00:25.141Z,13.40
2018-10-16T08:02:53.611Z,13.40
2018-10-16T08:05:22.176Z,13.60
2018-10-16T08:07:50.676Z,13.80
2018-10-16T08:10:19.173Z,13.90
2018-10-16T08:12:47.612Z,14.00
2018-10-16T08:15:16.113Z,14.20
2018-10-16T08:17:44.800Z,14.20
2018-10-16T08:20:13.783Z,14.30
2018-10-16T08:22:43.044Z,14.30
2018-10-16T08:25:11.825Z,14.50
2018-10-16T08:27:40.302Z,14.50
2018-10-16T08:30:09.546Z,14.60
2018-10-16T08:32:37.969Z,15.00
2018-10-16T08:35:06.467Z,15.10
2018-10-16T08:37:51.768Z,15.20
2018-10-16T08:40:20.280Z,15.20
2018-10-16T08:43:58.148Z,15.10
2018-10-16T08:46:37.823Z,15.10
2018-10-16T08:49:17.466Z,15.00
2018-10-16T08:51:50.592Z,15.30
2018-10-16T08:54:19.651Z,15.50
2018-10-16T08:56:48.774Z,15.70
2018-10-16T08:59:17.218Z,15.90
2018-10-16T09:01:46.026Z,16.30
2018-10-16T09:04:15.008Z,16.60
2018-10-16T09:06:43.556Z,16.70
2018-10-16T09:09:13.908Z,16.80
2018-10-16T09:11:43.730Z,16.90
2018-10-16T09:14:12.996Z,17.10
2018-10-16T09:16:41.451Z,17.30
2018-10-16T09:19:09.913Z,17.40
2018-10-16T09:21:38.383Z,17.60
2018-10-16T09:24:06.936Z,17.70
2018-10-16T09:26:35.422Z,17.80
2018-10-16T09:29:03.903Z,18.00
2018-10-16T09:31:33.039Z,18.20
2018-10-16T09:34:01.476Z,18.30
2018-10-16T09:36:29.988Z,18.60
2018-10-16T09:39:02.084Z,18.90
2018-10-16T09:41:30.810Z,18.60
2018-10-16T09:43:59.260Z,18.70
2018-10-16T09:46:27.678Z,18.30
2018-10-16T09:48:56.156Z,18.10
2018-10-16T09:51:25.341Z,18.60
2018-10-16T09:53:53.811Z,18.90
2018-10-16T09:56:22.323Z,19.20
2018-10-16T09:58:50.784Z,19.30
2018-10-16T10:01:25.320Z,19.70
2018-10-16T10:03:53.788Z,19.70
2018-10-16T10:06:22.324Z,19.90
2018-10-16T10:08:50.797Z,19.70
2018-10-16T10:11:19.247Z,19.80
2018-10-16T10:13:47.744Z,20.10
2018-10-16T10:16:16.256Z,20.10
2018-10-16T10:18:44.726Z,20.00
2018-10-16T10:21:13.192Z,20.20
2018-10-16T10:23:41.935Z,20.20
2018-10-16T10:26:10.499Z,20.60
2018-10-16T10:28:38.959Z,20.80
2018-10-16T10:31:07.407Z,21.10
2018-10-16T10:33:35.907Z,21.20
2018-10-16T10:36:04.350Z,21.50
2018-10-16T10:38:33.460Z,21.80
2018-10-16T10:41:01.944Z,21.80
2018-10-16T10:43:30.407Z,21.80
2018-10-16T10:45:59.573Z,21.90
2018-10-16T10:48:28.033Z,22.10
2018-10-16T10:50:56.608Z,21.90
2018-10-16T10:53:25.296Z,22.00
2018-10-16T10:55:53.731Z,22.20
2018-10-16T10:58:22.469Z,22.50
2018-10-16T11:00:50.909Z,22.10
2018-10-16T11:03:19.464Z,21.80
2018-10-16T11:05:47.828Z,22.20
2018-10-16T11:08:16.283Z,22.60
2018-10-16T11:10:44.806Z,22.90
2018-10-16T11:13:13.262Z,22.90
2018-10-16T11:15:41.686Z,22.50
2018-10-16T11:18:10.122Z,22.80
2018-10-16T11:20:39.155Z,23.20
2018-10-16T11:23:07.597Z,23.50
2018-10-16T11:25:36.420Z,23.60
2018-10-16T11:28:05.197Z,23.60
2018-10-16T11:30:33.918Z,23.50
2018-10-16T11:33:02.371Z,23.70
2018-10-16T11:35:30.829Z,23.90
2018-10-16T11:37:59.315Z,24.10
2018-10-16T11:40:28.058Z,24.20
2018-10-16T11:42:56.503Z,24.00
2018-10-16T11:45:25.264Z,24.20
2018-10-16T11:47:53.979Z,24.40
2018-10-16T11:50:22.427Z,24.50
2018-10-16T11:52:51.148Z,24.20
2018-10-16T11:55:19.616Z,23.90
2018-10-16T11:57:48.052Z,23.90
2018-10-16T12:00:17.927Z,23.80
2018-10-16T12:02:46.855Z,24.10
2018-10-16T12:05:15.455Z,24.30
2018-10-16T12:07:44.491Z,24.20
2018-10-16T12:10:12.959Z,24.50
2018-10-16T12:12:41.387Z,24.60
2018-10-16T12:15:09.864Z,24.70
2018-10-16T12:17:43.690Z,25.00
2018-10-16T12:21:15.151Z,25.00
2018-10-16T12:23:43.651Z,25.40
2018-10-16T12:26:12.111Z,25.00
2018-10-16T12:28:40.535Z,25.00
2018-10-16T12:31:09.451Z,25.20
2018-10-16T12:33:38.338Z,25.30
2018-10-16T12:36:07.056Z,25.30
2018-10-16T12:38:35.713Z,25.00
2018-10-16T12:41:04.464Z,25.00
2018-10-16T12:43:32.937Z,25.10
2018-10-16T12:46:01.399Z,25.30
2018-10-16T12:48:30.206Z,25.60
2018-10-16T12:50:58.684Z,25.80
2018-10-16T12:53:27.123Z,25.60
2018-10-16T12:55:55.911Z,25.70
2018-10-16T12:58:24.327Z,25.50
2018-10-16T13:00:53.341Z,25.50
2018-10-16T13:03:22.319Z,25.60
2018-10-16T13:05:50.827Z,25.80
2018-10-16T13:08:19.247Z,25.90
2018-10-16T13:10:48.020Z,26.00
2018-10-16T13:13:16.455Z,25.90
2018-10-16T13:15:45.553Z,25.70
2018-10-16T13:18:13.990Z,25.60
2018-10-16T13:20:42.662Z,25.70
2018-10-16T13:23:11.222Z,26.00
2018-10-16T13:25:40.621Z,25.90
2018-10-16T13:28:09.165Z,26.00
2018-10-16T13:30:37.693Z,25.60
2018-10-16T13:33:06.284Z,25.50
2018-10-16T13:35:35.049Z,25.40
2018-10-16T13:38:03.848Z,25.50
2018-10-16T13:40:32.398Z,25.60
2018-10-16T13:43:01.489Z,25.70
2018-10-16T13:45:29.911Z,25.60
2018-10-16T13:47:58.370Z,25.60
2018-10-16T13:50:29.257Z,25.50
2018-10-16T13:52:57.980Z,25.40
2018-10-16T13:55:26.441Z,25.30
2018-10-16T13:57:54.932Z,25.30
2018-10-16T14:00:23.390Z,25.50
2018-10-16T14:02:52.891Z,25.70
2018-10-16T14:05:21.489Z,25.60
2018-10-16T14:07:50.334Z,25.30
2018-10-16T14:10:18.915Z,25.20
2018-10-16T14:12:48.426Z,25.10
2018-10-16T14:15:17.703Z,24.90
2018-10-16T14:17:46.230Z,25.00
2018-10-16T14:20:14.746Z,24.90
2018-10-16T14:22:43.785Z,24.90
2018-10-16T14:25:13.580Z,24.70
2018-10-16T14:27:43.205Z,24.70
2018-10-16T14:30:14.867Z,24.60
2018-10-16T14:32:43.647Z,24.50
2018-10-16T14:35:12.610Z,24.50
2018-10-16T14:37:41.554Z,24.50
2018-10-16T14:40:12.168Z,24.50
2018-10-16T14:42:41.443Z,24.40
2018-10-16T14:45:10.939Z,24.30
2018-10-16T14:47:40.072Z,24.60
2018-10-16T14:50:09.726Z,24.60
2018-10-16T14:52:38.119Z,24.60
2018-10-16T14:55:06.683Z,24.40
2018-10-16T14:57:35.729Z,24.30
2018-10-16T15:00:04.721Z,24.40
2018-10-16T15:02:33.532Z,24.40
2018-10-16T15:05:02.056Z,24.40
2018-10-16T15:07:30.540Z,24.30
2018-10-16T15:09:59.252Z,24.20
2018-10-16T15:12:31.378Z,24.20
2018-10-16T15:15:00.755Z,24.00
2018-10-16T15:17:30.030Z,24.10
2018-10-16T15:19:58.879Z,24.20
2018-10-16T15:22:27.757Z,24.00
2018-10-16T15:24:56.212Z,23.90
2018-10-16T15:27:24.803Z,23.80
2018-10-16T15:29:53.773Z,23.80
2018-10-16T15:32:22.288Z,23.70
2018-10-16T15:34:50.733Z,23.70
2018-10-16T15:37:19.219Z,23.70
2018-10-16T15:39:47.816Z,23.60
2018-10-16T15:42:16.604Z,23.70
2018-10-16T15:44:45.076Z,23.70
2018-10-16T15:47:13.550Z,23.60
2018-10-16T15:49:42.035Z,23.40
2018-10-16T15:52:10.511Z,23.40
2018-10-16T15:54:45.686Z,23.30
2018-10-16T15:57:14.136Z,23.30
2018-10-16T15:59:42.609Z,23.20
2018-10-16T16:02:11.195Z,23.30
2018-10-16T16:04:39.863Z,23.10
2018-10-16T16:07:08.331Z,23.10
2018-10-16T16:09:36.795Z,23.10
2018-10-16T16:12:05.476Z,23.00
2018-10-16T16:14:34.208Z,22.80
2018-10-16T16:17:03.029Z,22.80
2018-10-16T16:19:31.509Z,22.70
2018-10-16T16:21:59.978Z,22.40
2018-10-16T16:24:28.451Z,22.30
2018-10-16T16:26:57.058Z,22.10
2018-10-16T16:29:25.548Z,21.90
2018-10-16T16:31:54.145Z,21.80
2018-10-16T16:34:22.595Z,21.70
2018-10-16T16:36:51.071Z,21.60
2018-10-16T16:39:19.553Z,21.70
2018-10-16T16:41:48.033Z,21.50
2018-10-16T16:44:18.284Z,21.40
2018-10-16T16:46:46.899Z,21.40
2018-10-16T16:49:15.644Z,21.40
2018-10-16T16:51:44.100Z,21.30
2018-10-16T16:54:12.576Z,21.40
2018-10-16T16:56:41.048Z,21.20
2018-10-16T16:59:09.834Z,21.30
2018-10-16T17:01:38.376Z,21.20
2018-10-16T17:04:06.893Z,21.20
2018-10-16T17:06:35.372Z,21.20
2018-10-16T17:09:04.663Z,21.20
2018-10-16T17:11:33.170Z,20.90
2018-10-16T17:14:01.632Z,20.60
2018-10-16T17:16:30.082Z,20.60
2018-10-16T17:18:58.683Z,20.50
2018-10-16T17:21:27.133Z,20.40
2018-10-16T17:23:55.640Z,20.40
2018-10-16T17:26:24.636Z,20.20
2018-10-16T17:28:52.938Z,20.00
2018-10-16T17:31:21.664Z,20.00
2018-10-16T17:33:50.920Z,19.80
2018-10-16T17:36:19.480Z,19.80
2018-10-16T17:38:48.000Z,20.10
2018-10-16T17:41:16.466Z,20.20
2018-10-16T17:43:44.922Z,19.80
2018-10-16T17:46:13.530Z,19.60
2018-10-16T17:48:42.328Z,19.50
2018-10-16T17:51:11.400Z,19.30
2018-10-16T17:53:39.820Z,19.30
2018-10-16T17:56:08.642Z,19.20
2018-10-16T17:58:37.177Z,19.10
2018-10-16T18:01:06.348Z,19.10
2018-10-16T18:03:34.825Z,19.10
2018-10-16T18:06:03.422Z,19.00
2018-10-16T18:08:31.848Z,19.00
2018-10-16T18:11:00.480Z,19.00
2018-10-16T18:13:28.920Z,19.10
2018-10-16T18:15:57.436Z,19.00
2018-10-16T18:18:25.956Z,19.00
2018-10-16T18:20:54.441Z,18.90
2018-10-16T18:23:23.358Z,18.80
2018-10-16T18:25:52.160Z,19.10
2018-10-16T18:28:21.222Z,19.10
2018-10-16T18:30:49.738Z,18.90
2018-10-16T18:33:18.455Z,18.90
2018-10-16T18:35:47.459Z,18.70
2018-10-16T18:38:16.684Z,18.60
2018-10-16T18:40:45.489Z,18.40
2018-10-16T18:43:14.367Z,18.30
2018-10-16T18:45:42.875Z,18.20
2018-10-16T18:48:11.611Z,18.40
2018-10-16T18:50:40.100Z,18.70
2018-10-16T18:53:08.651Z,18.60
2018-10-16T18:55:37.107Z,18.40
2018-10-16T18:58:05.862Z,18.30
2018-10-16T19:00:34.563Z,18.20
2018-10-16T19:03:03.133Z,18.20
2018-10-16T19:05:31.555Z,18.20
2018-10-16T19:08:01.018Z,18.10
2018-10-16T19:10:29.416Z,18.30
2018-10-16T19:13:01.247Z,18.10
2018-10-16T19:15:32.031Z,18.00
2018-10-16T19:18:00.480Z,18.00
2018-10-16T19:20:29.012Z,18.00
2018-10-16T19:22:58.351Z,18.00
2018-10-16T19:25:27.647Z,17.90
2018-10-16T19:27:56.095Z,17.80
2018-10-16T19:30:24.568Z,17.80
2018-10-16T19:32:53.021Z,17.80
2018-10-16T19:35:23.129Z,17.70
2018-10-16T19:37:51.649Z,17.70
2018-10-16T19:40:20.090Z,17.90
2018-10-16T19:42:48.899Z,17.90
2018-10-16T19:45:17.803Z,17.80
2018-10-16T19:47:46.884Z,17.90
2018-10-16T19:50:15.355Z,17.70
2018-10-16T19:52:44.114Z,17.60
2018-10-16T19:55:12.571Z,17.40
2018-10-16T19:57:41.064Z,17.40
2018-10-16T20:00:10.196Z,17.20
2018-10-16T20:02:38.893Z,17.30
2018-10-16T20:05:08.050Z,17.30
2018-10-16T20:07:36.556Z,17.30
2018-10-16T20:10:05.933Z,17.30
2018-10-16T20:12:34.714Z,17.40
2018-10-16T20:15:03.222Z,17.40
2018-10-16T20:17:31.983Z,17.20
2018-10-16T20:20:00.763Z,17.10
2018-10-16T20:22:29.811Z,17.20
2018-10-16T20:24:58.286Z,17.00
2018-10-16T20:27:26.749Z,16.90
2018-10-16T20:29:55.202Z,17.00
2018-10-16T20:32:23.984Z,16.90
2018-10-16T20:34:52.460Z,17.10
2018-10-16T20:37:20.907Z,16.90
2018-10-16T20:39:49.387Z,16.80
2018-10-16T20:42:18.103Z,16.80
2018-10-16T20:44:46.870Z,16.70
2018-10-16T20:47:15.335Z,16.70
2018-10-16T20:49:43.818Z,16.70
2018-10-16T20:52:12.571Z,16.60
2018-10-16T20:54:41.639Z,16.60
2018-10-16T20:57:10.103Z,16.70
2018-10-16T20:59:40.181Z,16.70
2018-10-16T21:02:08.619Z,16.60
2018-10-16T21:04:37.573Z,16.60
2018-10-16T21:07:06.252Z,16.60
2018-10-16T21:09:34.556Z,16.60
2018-10-16T21:12:03.061Z,16.70
2018-10-16T21:14:31.514Z,17.00
2018-10-16T21:17:00.199Z,17.00
2018-10-16T21:19:28.745Z,16.90
2018-10-16T21:21:57.143Z,17.00
2018-10-16T21:24:25.600Z,17.00
2018-10-16T21:27:04.635Z,16.90
2018-10-16T21:29:33.786Z,16.80
2018-10-16T21:32:02.484Z,16.50
2018-10-16T21:34:31.125Z,16.20
2018-10-16T21:36:59.605Z,16.20
2018-10-16T21:39:28.313Z,16.30
2018-10-16T21:41:56.818Z,16.60
2018-10-16T21:44:25.607Z,16.50
2018-10-16T21:46:54.320Z,16.10
2018-10-16T21:49:23.435Z,16.00
2018-10-16T21:51:52.291Z,15.90
2018-10-16T21:54:21.075Z,15.80
2018-10-16T21:56:49.553Z,15.70
2018-10-16T21:59:18.717Z,15.60
2018-10-16T22:01:52.483Z,15.80
2018-10-16T22:04:21.188Z,15.70
2018-10-16T22:06:49.639Z,15.50
2018-10-16T22:09:18.091Z,15.40
2018-10-16T22:11:46.527Z,15.40
2018-10-16T22:14:15.010Z,15.30
2018-10-16T22:16:43.497Z,15.20
2018-10-16T22:19:12.031Z,15.20
2018-10-16T22:21:40.747Z,15.20
2018-10-16T22:24:09.526Z,15.10
2018-10-16T22:26:38.043Z,15.30
2018-10-16T22:29:06.567Z,15.60
2018-10-16T22:31:34.978Z,15.40
2018-10-16T22:34:03.721Z,15.20
2018-10-16T22:36:32.165Z,15.00
2018-10-16T22:39:00.657Z,15.00
2018-10-16T22:41:29.091Z,14.80
2018-10-16T22:43:57.616Z,14.80
2018-10-16T22:46:26.201Z,14.80
2018-10-16T22:48:54.903Z,14.70
2018-10-16T22:51:23.607Z,14.70
2018-10-16T22:53:52.290Z,14.80
2018-10-16T22:56:20.818Z,14.70
2018-10-16T22:58:49.591Z,14.60
2018-10-16T23:01:18.652Z,14.60
2018-10-16T23:03:47.450Z,14.50
2018-10-16T23:06:16.174Z,14.50
2018-10-16T23:08:45.007Z,14.40
2018-10-16T23:11:13.674Z,14.40
2018-10-16T23:13:42.277Z,14.50
2018-10-16T23:16:10.744Z,14.50
2018-10-16T23:18:39.572Z,14.40
2018-10-16T23:21:08.048Z,14.40
2018-10-16T23:23:36.543Z,14.50
2018-10-16T23:26:05.990Z,14.40
2018-10-16T23:28:34.478Z,14.30
2018-10-16T23:31:02.960Z,14.40
2018-10-16T23:33:31.452Z,14.40
2018-10-16T23:35:59.921Z,14.40
2018-10-16T23:38:28.651Z,14.30
2018-10-16T23:40:57.175Z,14.10
2018-10-16T23:43:25.724Z,14.00
2018-10-16T23:45:55.145Z,13.90
2018-10-16T23:48:23.835Z,13.80
2018-10-16T23:50:52.356Z,13.70
2018-10-16T23:53:20.882Z,13.50
2018-10-16T23:55:49.354Z,13.40
2018-10-16T23:58:18.063Z,13.50
